Time;durP1;ratioP1;P1;durP2;ratioP2;P2;SDS_P1;SDS_P2;PMS_P1;PMS_P2;Temp;Humidity;BMP_temperature;BMP_pressure;BME280_temperature;BME280_humidity;BME280_pressure;Samples;Min_cycle;Max_cycle;Signal;HPM_P1;HPM_P2
2023/04/26 00:00:47;;;;;;;;;;;;;;;18.50;60.40;98262.31;2079772;28;19940;-46
2023/04/26 00:01:47;;;;;;;;;;;;;;;18.50;60.26;98258.81;2077144;28;20029;-47
2023/04/26 00:02:49;;;;;;;;;;;;;;;18.51;59.98;98260.44;2078549;28;20543;-48
2023/04/26 00:03:50;;;;;;;;;;;;;;;18.51;60.33;98257.75;2079321;28;20004;-47
2023/04/26 00:04:54;;;;;;;;;;;;;;;18.51;60.25;98261.25;2077622;28;19932;-48
2023/04/26 00:05:55;;;;;;;;;;;;;;;18.51;60.30;98261.25;2079377;28;19983;-49
2023/04/26 00:06:56;;;;;;;;;;;;;;;18.51;60.29;98258.59;2078373;28;21932;-47
2023/04/26 00:07:57;;;;;;;;;;;;;;;18.52;60.14;98259.41;2076980;28;20653;-49
2023/04/26 00:08:58;;;;;;;;;;;;;;;18.51;60.35;98263.13;2078607;28;19929;-47
2023/04/26 00:09:58;;;;;;;;;;;;;;;18.51;60.04;98260.44;2077608;28;19975;-48
2023/04/26 00:11:00;;;;;;;;;;;;;;;18.50;60.09;98251.56;2078287;28;19936;-49
2023/04/26 00:12:00;;;;;;;;;;;;;;;18.51;60.06;98261.25;2077314;28;19925;-49
2023/04/26 00:13:03;;;;;;;;;;;;;;;18.51;60.11;98261.25;2077869;28;19932;-47
2023/04/26 00:14:04;;;;;;;;;;;;;;;18.49;60.26;98260.66;2075232;28;19929;-48
2023/04/26 00:15:06;;;;;;;;;;;;;;;18.49;59.93;98260.66;2076292;28;19933;-46
2023/04/26 00:16:07;;;;;;;;;;;;;;;18.49;60.29;98263.34;2076667;28;19944;-47
2023/04/26 00:17:08;;;;;;;;;;;;;;;18.49;60.04;98262.50;2079058;28;21735;-47
2023/04/26 00:18:08;;;;;;;;;;;;;;;18.48;60.01;98267.06;2076793;28;19978;-48
2023/04/26 00:19:10;;;;;;;;;;;;;;;18.49;60.26;98262.50;2076523;28;19929;-50
2023/04/26 00:20:12;;;;;;;;;;;;;;;18.48;60.10;98263.56;2076953;28;20291;-47
2023/04/26 00:21:13;;;;;;;;;;;;;;;18.49;60.32;98263.34;2083397;28;20050;-46
2023/04/26 00:22:14;;;;;;;;;;;;;;;18.49;60.13;98268.69;2086809;28;19955;-49
2023/04/26 00:23:16;;;;;;;;;;;;;;;18.49;60.08;98265.19;2083900;28;20671;-48
2023/04/26 00:24:16;;;;;;;;;;;;;;;18.48;60.14;98267.06;2086393;28;19928;-46
2023/04/26 00:25:18;;;;;;;;;;;;;;;18.47;60.20;98270.78;2087352;28;20503;-50
2023/04/26 00:26:18;;;;;;;;;;;;;;;18.47;60.28;98268.13;2086336;28;19928;-49
2023/04/26 00:27:19;;;;;;;;;;;;;;;18.48;60.24;98271.63;2086006;28;20001;-46
2023/04/26 00:28:22;;;;;;;;;;;;;;;18.48;60.06;98272.44;2087440;28;19932;-47
2023/04/26 00:29:23;;;;;;;;;;;;;;;18.47;60.08;98270.78;2087565;28;19966;-47
2023/04/26 00:30:24;;;;;;;;;;;;;;;18.47;59.98;98270.78;2086078;28;20179;-49
2023/04/26 00:31:25;;;;;;;;;;;;;;;18.47;60.15;98275.31;2086128;27;20024;-50
2023/04/26 00:32:26;;;;;;;;;;;;;;;18.47;60.01;98276.16;2086527;28;19929;-48
2023/04/26 00:33:27;;;;;;;;;;;;;;;18.47;59.94;98269.94;2087328;28;20018;-50
2023/04/26 00:34:32;;;;;;;;;;;;;;;18.47;60.03;98275.31;2087075;28;19939;-50
2023/04/26 00:35:32;;;;;;;;;;;;;;;18.46;60.11;98274.50;2086684;28;20360;-51
2023/04/26 00:36:33;;;;;;;;;;;;;;;18.46;60.03;98279.88;2085742;28;19933;-50
2023/04/26 00:37:34;;;;;;;;;;;;;;;18.46;60.17;98274.50;2086596;28;20609;-50
2023/04/26 00:38:36;;;;;;;;;;;;;;;18.46;60.20;98273.69;2088725;28;19932;-50
2023/04/26 00:39:36;;;;;;;;;;;;;;;18.45;60.17;98266.66;2087537;28;19958;-52
2023/04/26 00:40:38;;;;;;;;;;;;;;;18.45;60.18;98272.88;2087476;28;19974;-52
2023/04/26 00:41:38;;;;;;;;;;;;;;;18.44;60.18;98273.91;2087238;28;19932;-50
2023/04/26 00:42:40;;;;;;;;;;;;;;;18.44;60.22;98281.97;2088862;28;19987;-51
2023/04/26 00:43:42;;;;;;;;;;;;;;;18.45;60.18;98270.19;2090343;28;19924;-48
2023/04/26 00:44:43;;;;;;;;;;;;;;;18.44;60.39;98275.75;2086871;28;19932;-48
2023/04/26 00:45:44;;;;;;;;;;;;;;;18.44;59.93;98276.59;2086898;28;19951;-49
2023/04/26 00:46:45;;;;;;;;;;;;;;;18.43;60.20;98274.09;2088734;28;21120;-48
2023/04/26 00:47:46;;;;;;;;;;;;;;;18.43;59.97;98280.28;2084781;28;20344;-48
2023/04/26 00:48:47;;;;;;;;;;;;;;;18.42;60.05;98281.34;2088032;28;19951;-49
2023/04/26 00:49:48;;;;;;;;;;;;;;;18.43;60.08;98280.28;2086391;28;19928;-50
2023/04/26 00:50:49;;;;;;;;;;;;;;;18.43;59.89;98282.97;2085247;28;19933;-49
2023/04/26 00:51:50;;;;;;;;;;;;;;;18.44;60.09;98281.97;2078110;28;19929;-50
2023/04/26 00:52:52;;;;;;;;;;;;;;;18.42;60.20;98273.28;2081160;28;21541;-50
2023/04/26 00:53:52;;;;;;;;;;;;;;;18.43;59.98;98274.09;2078420;28;20069;-49
2023/04/26 00:54:55;;;;;;;;;;;;;;;18.42;60.06;98267.91;2079108;28;19929;-49
2023/04/26 00:55:56;;;;;;;;;;;;;;;18.42;60.13;98273.28;2079801;28;20008;-52
2023/04/26 00:56:57;;;;;;;;;;;;;;;18.42;59.99;98269.78;2078429;28;19972;-47
2023/04/26 00:57:58;;;;;;;;;;;;;;;18.41;59.99;98277.00;2080765;28;19928;-49
2023/04/26 00:59:01;;;;;;;;;;;;;;;18.42;60.16;98270.59;2078218;28;19979;-50
2023/04/26 01:00:01;;;;;;;;;;;;;;;18.41;60.05;98271.63;2077683;28;20020;-48
2023/04/26 01:01:03;;;;;;;;;;;;;;;18.41;59.93;98271.63;2080339;28;19940;-51
2023/04/26 01:02:03;;;;;;;;;;;;;;;18.41;60.07;98268.94;2079368;28;20013;-50
2023/04/26 01:03:05;;;;;;;;;;;;;;;18.42;60.04;98262.53;2078663;28;19929;-50
2023/04/26 01:04:06;;;;;;;;;;;;;;;18.41;59.95;98270.78;2077968;28;20449;-48
2023/04/26 01:05:08;;;;;;;;;;;;;;;18.43;59.89;98271.41;2075421;28;19929;-54
2023/04/26 01:06:09;;;;;;;;;;;;;;;18.41;60.05;98274.31;2081004;28;20371;-52
2023/04/26 01:07:11;;;;;;;;;;;;;;;18.40;59.98;98274.53;2080551;28;20056;-49
2023/04/26 01:08:15;;;;;;;;;;;;;;;18.40;59.96;98274.53;2079588;28;19932;-48
2023/04/26 01:09:17;;;;;;;;;;;;;;;18.38;59.93;98272.03;2079029;28;19925;-52
2023/04/26 01:10:18;;;;;;;;;;;;;;;18.39;59.99;98276.41;2080291;28;19929;-48
2023/04/26 01:11:21;;;;;;;;;;;;;;;18.39;59.93;98279.09;2077062;28;19979;-49
2023/04/26 01:12:22;;;;;;;;;;;;;;;18.39;60.13;98279.09;2087205;28;19925;-50
2023/04/26 01:13:24;;;;;;;;;;;;;;;18.39;60.20;98275.56;2086227;28;19928;-50
2023/04/26 01:14:26;;;;;;;;;;;;;;;18.38;60.01;98277.41;2087052;28;19935;-53
2023/04/26 01:15:29;;;;;;;;;;;;;;;18.38;60.19;98277.41;2086430;28;19929;-53
2023/04/26 01:16:29;;;;;;;;;;;;;;;18.38;60.26;98274.72;2087409;28;19944;-51
2023/04/26 01:17:31;;;;;;;;;;;;;;;18.39;59.90;98278.25;2087574;28;20533;-50
2023/04/26 01:18:31;;;;;;;;;;;;;;;18.37;60.20;98275.78;2086571;28;19937;-48
2023/04/26 01:19:36;;;;;;;;;;;;;;;18.37;59.99;98273.09;2079738;28;19940;-54
2023/04/26 01:20:37;;;;;;;;;;;;;;;18.36;59.94;98271.44;2084988;28;20030;-52
2023/04/26 01:21:38;;;;;;;;;;;;;;;18.37;60.08;98278.47;2081742;28;21539;-49
2023/04/26 01:22:40;;;;;;;;;;;;;;;18.37;60.26;98273.09;2086238;28;20024;-50
2023/04/26 01:23:41;;;;;;;;;;;;;;;18.38;59.98;98271.22;2086203;28;19936;-48
2023/04/26 01:24:43;;;;;;;;;;;;;;;18.38;60.00;98280.09;2087532;28;20325;-49
2023/04/26 01:25:45;;;;;;;;;;;;;;;18.38;59.78;98271.22;2085692;28;19981;-49
2023/04/26 01:26:46;;;;;;;;;;;;;;;18.36;59.94;98274.13;2087116;28;20001;-51
2023/04/26 01:27:47;;;;;;;;;;;;;;;18.38;60.08;98273.91;2087247;28;19928;-49
2023/04/26 01:28:48;;;;;;;;;;;;;;;18.37;60.18;98274.94;2085875;28;19982;-48
2023/04/26 01:29:49;;;;;;;;;;;;;;;18.36;59.83;98278.66;2087069;28;19929;-51
2023/04/26 01:30:50;;;;;;;;;;;;;;;18.36;60.05;98279.50;2086524;28;19935;-49
2023/04/26 01:31:52;;;;;;;;;;;;;;;18.36;59.95;98279.50;2088478;28;19936;-48
2023/04/26 01:32:52;;;;;;;;;;;;;;;18.36;59.91;98284.88;2087636;28;19925;-50
2023/04/26 01:33:54;;;;;;;;;;;;;;;18.36;60.12;98278.66;2086904;28;21164;-49
2023/04/26 01:34:54;;;;;;;;;;;;;;;18.36;60.13;98281.34;2085187;28;19936;-51
2023/04/26 01:35:55;;;;;;;;;;;;;;;18.36;60.03;98282.19;2086570;28;19928;-50
2023/04/26 01:36:56;;;;;;;;;;;;;;;18.36;60.04;98281.34;2086453;28;22277;-52
2023/04/26 01:37:59;;;;;;;;;;;;;;;18.34;59.95;98281.56;2087674;28;19932;-50
2023/04/26 01:38:59;;;;;;;;;;;;;;;18.33;59.96;98277.25;2087721;28;20387;-49
2023/04/26 01:40:01;;;;;;;;;;;;;;;18.35;60.04;98285.06;2083758;28;19933;-51
2023/04/26 01:41:01;;;;;;;;;;;;;;;18.34;59.87;98286.94;2087971;28;19929;-51
2023/04/26 01:42:03;;;;;;;;;;;;;;;18.35;59.89;98287.75;2085212;28;19951;-48
2023/04/26 01:43:03;;;;;;;;;;;;;;;18.34;59.92;98291.50;2087092;28;19929;-49
2023/04/26 01:44:05;;;;;;;;;;;;;;;18.34;60.05;98289.63;2087600;28;19943;-51
2023/04/26 01:45:06;;;;;;;;;;;;;;;18.34;60.17;98286.13;2086067;28;19932;-48
2023/04/26 01:46:07;;;;;;;;;;;;;;;18.33;60.10;98281.75;2085465;28;20350;-53
2023/04/26 01:47:08;;;;;;;;;;;;;;;18.34;60.14;98286.13;2087667;28;19932;-53
2023/04/26 01:48:09;;;;;;;;;;;;;;;18.33;59.81;98282.63;2085830;28;19925;-48
2023/04/26 01:49:10;;;;;;;;;;;;;;;18.33;60.05;98279.94;2086498;28;19948;-51
2023/04/26 01:50:11;;;;;;;;;;;;;;;18.31;60.02;98282.81;2087004;28;20022;-49
2023/04/26 01:51:12;;;;;;;;;;;;;;;18.32;60.08;98289.00;2087847;28;19932;-49
2023/04/26 01:52:13;;;;;;;;;;;;;;;18.31;60.15;98288.19;2087531;28;19928;-52
2023/04/26 01:53:15;;;;;;;;;;;;;;;18.33;59.84;98297.88;2086887;28;19970;-50
2023/04/26 01:54:16;;;;;;;;;;;;;;;18.31;60.14;98288.19;2084933;28;20661;-50
2023/04/26 01:55:17;;;;;;;;;;;;;;;18.32;60.10;98291.69;2086956;28;19928;-52
2023/04/26 01:56:18;;;;;;;;;;;;;;;18.31;60.11;98298.09;2085132;28;19990;-49
2023/04/26 01:57:19;;;;;;;;;;;;;;;18.30;59.92;98291.91;2084961;28;19929;-51
2023/04/26 01:58:21;;;;;;;;;;;;;;;18.31;60.01;98298.09;2087969;28;19936;-51
2023/04/26 01:59:21;;;;;;;;;;;;;;;18.29;60.21;98289.44;2083178;28;19994;-50
2023/04/26 02:00:23;;;;;;;;;;;;;;;18.30;60.00;98294.59;2088974;28;19928;-51
2023/04/26 02:01:23;;;;;;;;;;;;;;;18.29;59.83;98300.16;2087006;28;19925;-48
2023/04/26 02:02:25;;;;;;;;;;;;;;;18.28;59.84;98299.34;2084914;28;20272;-52
2023/04/26 02:03:25;;;;;;;;;;;;;;;18.29;59.85;98297.47;2084146;28;19997;-50
2023/04/26 02:04:27;;;;;;;;;;;;;;;18.29;60.10;98294.78;2084883;28;19936;-53
2023/04/26 02:05:27;;;;;;;;;;;;;;;18.28;60.14;98298.53;2085854;28;20023;-52
2023/04/26 02:06:30;;;;;;;;;;;;;;;18.28;59.80;98299.34;2085933;28;19929;-52
2023/04/26 02:07:30;;;;;;;;;;;;;;;18.28;59.79;98298.53;2086155;28;20266;-51
2023/04/26 02:08:33;;;;;;;;;;;;;;;18.28;60.09;98298.53;2085251;28;19978;-48
2023/04/26 02:09:34;;;;;;;;;;;;;;;18.28;60.11;98301.22;2084209;28;19924;-50
2023/04/26 02:10:35;;;;;;;;;;;;;;;18.28;59.84;98303.91;2083562;28;20004;-50
2023/04/26 02:11:36;;;;;;;;;;;;;;;18.28;59.87;98303.91;2088886;28;19932;-50
2023/04/26 02:12:37;;;;;;;;;;;;;;;18.28;59.97;98306.56;2083520;28;20669;-53
2023/04/26 02:13:38;;;;;;;;;;;;;;;18.27;59.67;98303.03;2086004;28;20391;-50
2023/04/26 02:14:39;;;;;;;;;;;;;;;18.28;59.94;98303.91;2089034;28;19929;-50
2023/04/26 02:15:40;;;;;;;;;;;;;;;18.26;59.90;98306.78;2086201;28;19925;-49
2023/04/26 02:16:42;;;;;;;;;;;;;;;18.26;60.02;98301.41;2087338;28;21199;-53
2023/04/26 02:17:42;;;;;;;;;;;;;;;18.28;59.94;98309.25;2084425;28;20051;-51
2023/04/26 02:18:44;;;;;;;;;;;;;;;18.27;59.94;98307.59;2086542;28;19928;-52
2023/04/26 02:19:45;;;;;;;;;;;;;;;18.27;60.07;98307.59;2086831;28;19935;-50
2023/04/26 02:20:46;;;;;;;;;;;;;;;18.26;59.96;98308.63;2086777;28;20012;-48
2023/04/26 02:21:51;;;;;;;;;;;;;;;18.25;59.99;98309.69;2090164;28;19993;-50
2023/04/26 02:22:53;;;;;;;;;;;;;;;18.27;59.94;98307.59;2085945;28;19937;-51
2023/04/26 02:23:55;;;;;;;;;;;;;;;18.25;59.83;98312.38;2086431;28;20076;-49
2023/04/26 02:24:56;;;;;;;;;;;;;;;18.25;60.04;98315.06;2088273;28;19932;-49
2023/04/26 02:25:57;;;;;;;;;;;;;;;18.25;59.92;98315.06;2086537;28;19932;-51
2023/04/26 02:27:02;;;;;;;;;;;;;;;18.24;59.84;98314.19;2085888;28;19929;-53
2023/04/26 02:28:03;;;;;;;;;;;;;;;18.24;60.04;98313.38;2085675;28;20797;-51
2023/04/26 02:29:05;;;;;;;;;;;;;;;18.24;60.07;98316.88;2085898;28;20019;-48
2023/04/26 02:30:06;;;;;;;;;;;;;;;18.23;60.06;98312.56;2087434;28;19940;-48
2023/04/26 02:31:07;;;;;;;;;;;;;;;18.24;59.85;98313.38;2085051;28;19929;-48
2023/04/26 02:32:08;;;;;;;;;;;;;;;18.24;59.82;98316.06;2089778;28;19944;-48
2023/04/26 02:33:09;;;;;;;;;;;;;;;18.23;60.07;98319.78;2090000;28;20669;-48
2023/04/26 02:34:11;;;;;;;;;;;;;;;18.23;59.91;98317.09;2087903;28;19932;-52
2023/04/26 02:35:13;;;;;;;;;;;;;;;18.23;59.98;98317.09;2086723;28;19940;-49
2023/04/26 02:36:13;;;;;;;;;;;;;;;18.22;60.00;98318.13;2086914;28;19924;-50
2023/04/26 02:37:15;;;;;;;;;;;;;;;18.23;60.05;98325.97;2085234;28;20409;-49
2023/04/26 02:38:16;;;;;;;;;;;;;;;18.23;60.04;98322.47;2077959;28;19929;-50
2023/04/26 02:39:19;;;;;;;;;;;;;;;18.22;60.04;98321.66;2086441;28;19970;-52
2023/04/26 02:40:20;;;;;;;;;;;;;;;18.21;59.83;98322.66;2086106;28;19929;-53
2023/04/26 02:41:22;;;;;;;;;;;;;;;18.22;60.02;98318.13;2086293;28;19933;-49
2023/04/26 02:42:22;;;;;;;;;;;;;;;18.22;59.89;98318.13;2083544;28;19929;-50
2023/04/26 02:43:24;;;;;;;;;;;;;;;18.22;59.82;98323.50;2087520;28;20394;-50
2023/04/26 02:44:27;;;;;;;;;;;;;;;18.22;59.99;98326.19;2082795;28;20463;-49
2023/04/26 02:45:29;;;;;;;;;;;;;;;18.23;60.04;98327.84;2085623;28;19924;-52
2023/04/26 02:46:29;;;;;;;;;;;;;;;18.21;59.84;98329.91;2086322;28;19978;-50
2023/04/26 02:47:30;;;;;;;;;;;;;;;18.21;60.01;98327.22;2084946;28;19983;-47
2023/04/26 02:48:31;;;;;;;;;;;;;;;18.20;59.90;98323.72;2081917;28;19929;-48
2023/04/26 02:49:32;;;;;;;;;;;;;;;18.19;59.84;98322.09;2086220;28;20355;-47
2023/04/26 02:50:33;;;;;;;;;;;;;;;18.21;60.03;98324.53;2085310;28;19997;-49
2023/04/26 02:51:34;;;;;;;;;;;;;;;18.20;59.77;98317.53;2086037;28;19924;-48
2023/04/26 02:52:35;;;;;;;;;;;;;;;18.20;59.76;98326.41;2085771;28;19929;-51
2023/04/26 02:53:36;;;;;;;;;;;;;;;18.20;59.85;98322.91;2085254;28;19982;-50
2023/04/26 02:54:38;;;;;;;;;;;;;;;18.20;60.12;98320.22;2086235;28;19932;-49
2023/04/26 02:55:40;;;;;;;;;;;;;;;18.20;60.03;98322.91;2087029;28;19924;-49
2023/04/26 02:56:40;;;;;;;;;;;;;;;18.19;60.02;98322.09;2087060;28;19963;-53
2023/04/26 02:57:41;;;;;;;;;;;;;;;18.18;60.03;98320.41;2088201;28;19936;-49
2023/04/26 02:58:42;;;;;;;;;;;;;;;18.17;59.77;98324.13;2087689;28;20345;-48
2023/04/26 02:59:43;;;;;;;;;;;;;;;18.18;59.85;98319.59;2086525;28;19932;-52
2023/04/26 03:00:45;;;;;;;;;;;;;;;18.18;59.83;98323.09;2085212;28;19928;-48
2023/04/26 03:01:46;;;;;;;;;;;;;;;18.17;59.98;98320.63;2086585;28;19928;-51
2023/04/26 03:02:47;;;;;;;;;;;;;;;18.17;59.82;98317.94;2085940;28;19989;-52
2023/04/26 03:03:48;;;;;;;;;;;;;;;18.16;59.89;98317.09;2082725;28;19932;-48
2023/04/26 03:04:49;;;;;;;;;;;;;;;18.16;59.91;98319.78;2082318;28;19940;-54
2023/04/26 03:05:50;;;;;;;;;;;;;;;18.16;59.87;98316.28;2085664;28;20540;-48
2023/04/26 03:06:51;;;;;;;;;;;;;;;18.17;59.97;98323.31;2085148;28;19929;-50
2023/04/26 03:07:52;;;;;;;;;;;;;;;18.16;59.84;98318.97;2085798;27;19951;-50
2023/04/26 03:08:53;;;;;;;;;;;;;;;18.17;59.81;98323.31;2082357;28;19925;-52
2023/04/26 03:09:55;;;;;;;;;;;;;;;18.15;60.06;98318.16;2085359;28;19966;-50
2023/04/26 03:10:56;;;;;;;;;;;;;;;18.14;59.86;98321.06;2084999;28;20497;-52
2023/04/26 03:11:57;;;;;;;;;;;;;;;18.16;59.81;98327.03;2086928;28;19933;-50
2023/04/26 03:12:58;;;;;;;;;;;;;;;18.15;59.89;98317.31;2085212;28;20011;-51
2023/04/26 03:13:59;;;;;;;;;;;;;;;18.15;59.94;98322.69;2084446;28;22499;-53
2023/04/26 03:15:02;;;;;;;;;;;;;;;18.14;60.05;98323.75;2085234;28;19966;-48
2023/04/26 03:16:03;;;;;;;;;;;;;;;18.15;59.85;98326.19;2085490;28;19928;-48
2023/04/26 03:17:04;;;;;;;;;;;;;;;18.16;59.82;98321.66;2085157;28;19978;-52
2023/04/26 03:18:05;;;;;;;;;;;;;;;18.14;60.03;98318.38;2087668;28;20329;-49
2023/04/26 03:19:06;;;;;;;;;;;;;;;18.13;59.82;98319.38;2084688;28;19928;-52
2023/04/26 03:20:07;;;;;;;;;;;;;;;18.14;59.97;98324.56;2086394;28;19928;-49
2023/04/26 03:21:08;;;;;;;;;;;;;;;18.14;60.04;98323.75;2082756;28;19928;-49
2023/04/26 03:22:10;;;;;;;;;;;;;;;18.14;60.04;98318.38;2085295;28;19929;-48
2023/04/26 03:23:10;;;;;;;;;;;;;;;18.14;59.95;98318.38;2086261;28;19939;-51
2023/04/26 03:24:12;;;;;;;;;;;;;;;18.14;60.04;98329.09;2084193;28;19999;-49
2023/04/26 03:25:15;;;;;;;;;;;;;;;18.13;59.87;98322.06;2086370;28;19979;-50
2023/04/26 03:26:16;;;;;;;;;;;;;;;18.14;60.04;98323.75;2086026;28;19928;-50
2023/04/26 03:27:16;;;;;;;;;;;;;;;18.14;59.92;98318.38;2084693;28;20587;-51
2023/04/26 03:28:18;;;;;;;;;;;;;;;18.15;59.66;98325.38;2084742;28;19928;-49
2023/04/26 03:29:18;;;;;;;;;;;;;;;18.14;59.79;98323.75;2085301;28;20981;-50
2023/04/26 03:30:20;;;;;;;;;;;;;;;18.14;59.87;98323.75;2086833;28;19986;-49
2023/04/26 03:31:21;;;;;;;;;;;;;;;18.12;59.86;98325.78;2084551;28;19977;-50
2023/04/26 03:32:23;;;;;;;;;;;;;;;18.12;59.78;98328.47;2083180;28;19928;-50
2023/04/26 03:33:23;;;;;;;;;;;;;;;18.09;59.61;98327.84;2083698;28;19940;-51
2023/04/26 03:34:26;;;;;;;;;;;;;;;18.11;60.01;98326.81;2083323;28;20705;-53
2023/04/26 03:35:26;;;;;;;;;;;;;;;18.11;59.95;98330.34;2084589;28;19928;-48
2023/04/26 03:36:28;;;;;;;;;;;;;;;18.09;59.77;98327.84;2084648;28;20276;-51
2023/04/26 03:37:29;;;;;;;;;;;;;;;18.10;60.00;98334.03;2080444;28;19933;-51
2023/04/26 03:38:30;;;;;;;;;;;;;;;18.11;59.79;98326.81;2086320;28;20411;-49
2023/04/26 03:39:31;;;;;;;;;;;;;;;18.11;59.92;98335.72;2085985;28;20564;-50
2023/04/26 03:40:33;;;;;;;;;;;;;;;18.09;59.80;98327.03;2087980;28;19933;-48
2023/04/26 03:41:35;;;;;;;;;;;;;;;18.09;59.97;98330.53;2083456;28;19935;-48
2023/04/26 03:42:37;;;;;;;;;;;;;;;18.10;59.89;98331.34;2084185;28;19933;-51
2023/04/26 03:43:37;;;;;;;;;;;;;;;18.11;59.75;98334.84;2083626;28;19958;-52
2023/04/26 03:44:39;;;;;;;;;;;;;;;18.09;59.86;98338.59;2084385;28;19955;-49
2023/04/26 03:45:39;;;;;;;;;;;;;;;18.08;59.91;98334.28;2086134;28;19924;-48
2023/04/26 03:46:41;;;;;;;;;;;;;;;18.07;59.84;98329.09;2083717;28;19964;-49
2023/04/26 03:47:41;;;;;;;;;;;;;;;18.08;59.81;98328.91;2084631;28;19975;-51
2023/04/26 03:48:42;;;;;;;;;;;;;;;18.08;59.78;98331.59;2086141;28;19929;-50
2023/04/26 03:49:43;;;;;;;;;;;;;;;18.07;59.82;98329.09;2084179;28;19932;-50
2023/04/26 03:50:45;;;;;;;;;;;;;;;18.06;59.74;98339.00;2085469;28;19928;-53
2023/04/26 03:51:45;;;;;;;;;;;;;;;18.07;59.72;98340.66;2083997;28;19929;-52
2023/04/26 03:52:47;;;;;;;;;;;;;;;18.07;59.76;98334.47;2083281;28;19971;-49
2023/04/26 03:53:47;;;;;;;;;;;;;;;18.07;59.79;98340.66;2082585;28;19936;-50
2023/04/26 03:54:49;;;;;;;;;;;;;;;18.06;59.83;98339.00;2081894;28;19924;-52
2023/04/26 03:55:51;;;;;;;;;;;;;;;18.07;59.81;98340.66;2083423;28;19924;-50
2023/04/26 03:56:52;;;;;;;;;;;;;;;18.06;59.96;98339.00;2086591;28;20369;-50
2023/04/26 03:57:53;;;;;;;;;;;;;;;18.07;59.73;98339.81;2085151;28;19925;-50
2023/04/26 03:58:54;;;;;;;;;;;;;;;18.07;59.83;98343.34;2086874;28;19997;-50
2023/04/26 03:59:55;;;;;;;;;;;;;;;18.06;59.80;98328.28;2084393;28;19925;-48
2023/04/26 04:00:56;;;;;;;;;;;;;;;18.07;59.64;98340.66;2084594;28;20023;-49
2023/04/26 04:01:57;;;;;;;;;;;;;;;18.07;59.72;98343.34;2084708;28;20555;-52
2023/04/26 04:02:58;;;;;;;;;;;;;;;18.06;59.94;98347.06;2082314;28;20023;-49
2023/04/26 04:03:59;;;;;;;;;;;;;;;18.05;59.93;98342.72;2085236;28;19939;-50
2023/04/26 04:05:00;;;;;;;;;;;;;;;18.05;59.67;98348.09;2085085;28;20051;-48
2023/04/26 04:06:01;;;;;;;;;;;;;;;18.05;59.89;98357.97;2085196;28;19928;-49
2023/04/26 04:07:03;;;;;;;;;;;;;;;18.04;59.86;98351.78;2085304;28;20565;-48
2023/04/26 04:08:03;;;;;;;;;;;;;;;18.04;59.96;98357.16;2087086;28;20713;-49
2023/04/26 04:09:05;;;;;;;;;;;;;;;18.03;59.69;98352.84;2083907;28;19933;-49
2023/04/26 04:10:06;;;;;;;;;;;;;;;18.04;59.60;98350.97;2083451;28;19974;-48
2023/04/26 04:11:09;;;;;;;;;;;;;;;18.04;59.85;98357.16;2083361;28;19951;-51
2023/04/26 04:12:09;;;;;;;;;;;;;;;18.03;59.97;98352.03;2087451;28;19929;-49
2023/04/26 04:13:11;;;;;;;;;;;;;;;18.04;59.95;98357.16;2086347;28;19925;-51
2023/04/26 04:14:11;;;;;;;;;;;;;;;18.04;59.65;98354.47;2084521;28;19933;-51
2023/04/26 04:15:12;;;;;;;;;;;;;;;18.04;59.87;98361.72;2084590;28;19929;-48
2023/04/26 04:16:13;;;;;;;;;;;;;;;18.04;59.92;98359.03;2088396;28;19936;-50
2023/04/26 04:17:14;;;;;;;;;;;;;;;18.04;59.84;98361.72;2087237;28;19925;-49
2023/04/26 04:18:15;;;;;;;;;;;;;;;18.05;59.85;98364.22;2086763;28;19985;-53
2023/04/26 04:19:16;;;;;;;;;;;;;;;18.03;60.00;98358.22;2086601;28;19993;-50
2023/04/26 04:20:17;;;;;;;;;;;;;;;18.04;60.08;98367.91;2086603;28;19924;-49
2023/04/26 04:21:18;;;;;;;;;;;;;;;18.03;59.91;98360.88;2087780;28;20019;-52
2023/04/26 04:22:19;;;;;;;;;;;;;;;18.04;60.14;98357.16;2083920;28;20578;-50
2023/04/26 04:23:21;;;;;;;;;;;;;;;18.03;60.01;98363.56;2086602;28;19940;-50
2023/04/26 04:24:21;;;;;;;;;;;;;;;18.03;59.95;98360.88;2085170;28;19940;-53
2023/04/26 04:25:22;;;;;;;;;;;;;;;18.05;59.91;98360.66;2089005;28;20267;-49
2023/04/26 04:26:24;;;;;;;;;;;;;;;18.03;60.08;98360.88;2084732;28;19928;-53
2023/04/26 04:27:26;;;;;;;;;;;;;;;18.04;60.08;98364.41;2086944;28;20329;-50
2023/04/26 04:28:26;;;;;;;;;;;;;;;18.03;60.01;98366.25;2089276;28;19936;-53
2023/04/26 04:29:27;;;;;;;;;;;;;;;18.02;59.85;98369.97;2086409;28;20414;-49
2023/04/26 04:30:28;;;;;;;;;;;;;;;18.03;60.13;98371.63;2087439;28;21360;-49
2023/04/26 04:31:29;;;;;;;;;;;;;;;18.02;59.88;98369.97;2086965;28;19928;-48
2023/04/26 04:32:31;;;;;;;;;;;;;;;18.02;59.93;98366.44;2087439;28;19970;-53
2023/04/26 04:33:33;;;;;;;;;;;;;;;18.02;60.15;98369.13;2085732;28;19933;-49
2023/04/26 04:34:34;;;;;;;;;;;;;;;18.02;59.84;98367.28;2084575;28;19970;-50
2023/04/26 04:35:36;;;;;;;;;;;;;;;18.03;60.03;98368.13;2086148;28;20450;-51
2023/04/26 04:36:37;;;;;;;;;;;;;;;18.02;60.08;98372.63;2087811;28;19971;-52
2023/04/26 04:37:39;;;;;;;;;;;;;;;18.01;59.85;98372.88;2084944;28;19928;-53
2023/04/26 04:38:39;;;;;;;;;;;;;;;18.02;60.10;98369.97;2084705;28;20433;-51
2023/04/26 04:39:41;;;;;;;;;;;;;;;18.00;59.83;98372.03;2080511;28;19978;-53
2023/04/26 04:40:41;;;;;;;;;;;;;;;18.01;59.85;98372.88;2083779;28;19933;-48
2023/04/26 04:41:46;;;;;;;;;;;;;;;18.00;59.96;98369.34;2086357;28;20371;-49
2023/04/26 04:42:48;;;;;;;;;;;;;;;18.00;60.06;98371.22;2085199;28;19943;-49
2023/04/26 04:43:49;;;;;;;;;;;;;;;18.00;59.95;98377.41;2087104;28;19925;-50
2023/04/26 04:44:50;;;;;;;;;;;;;;;17.99;60.06;98370.38;2083932;28;19925;-49
2023/04/26 04:45:51;;;;;;;;;;;;;;;17.99;59.88;98375.75;2087403;28;20012;-48
2023/04/26 04:46:52;;;;;;;;;;;;;;;17.99;59.99;98375.75;2087316;28;19978;-52
2023/04/26 04:47:55;;;;;;;;;;;;;;;17.98;59.81;98376.78;2086508;28;19989;-48
2023/04/26 04:48:55;;;;;;;;;;;;;;;18.01;59.79;98375.53;2087147;28;19925;-49
2023/04/26 04:49:57;;;;;;;;;;;;;;;18.01;59.95;98370.19;2086386;28;20879;-50
2023/04/26 04:50:58;;;;;;;;;;;;;;;18.00;60.14;98382.78;2087026;28;19933;-53
2023/04/26 04:51:59;;;;;;;;;;;;;;;17.99;59.88;98372.22;2086588;28;19928;-49
2023/04/26 04:53:00;;;;;;;;;;;;;;;17.99;59.93;98378.41;2086398;28;20387;-52
2023/04/26 04:54:09;;;;;;;;;;;;;;;17.98;59.89;98374.09;2085123;28;19928;-50
2023/04/26 04:55:09;;;;;;;;;;;;;;;17.99;59.92;98382.97;2086630;28;20422;-51
2023/04/26 04:56:11;;;;;;;;;;;;;;;17.98;60.04;98384.84;2082293;28;19925;-50
2023/04/26 04:57:13;;;;;;;;;;;;;;;17.98;60.07;98381.31;2087423;28;19935;-51
2023/04/26 04:58:14;;;;;;;;;;;;;;;17.97;60.01;98380.50;2088097;28;20035;-50
2023/04/26 04:59:15;;;;;;;;;;;;;;;17.97;59.91;98376.97;2087664;28;19925;-48
2023/04/26 05:00:17;;;;;;;;;;;;;;;17.98;60.14;98381.31;2086297;28;19929;-51
2023/04/26 05:01:18;;;;;;;;;;;;;;;17.98;60.05;98390.19;2087185;28;20076;-50
2023/04/26 05:02:19;;;;;;;;;;;;;;;17.98;60.10;98386.69;2086972;28;19928;-50
2023/04/26 05:03:20;;;;;;;;;;;;;;;17.97;60.04;98388.56;2087671;28;19941;-49
2023/04/26 05:04:21;;;;;;;;;;;;;;;17.97;60.11;98391.25;2081102;28;20382;-48
2023/04/26 05:05:22;;;;;;;;;;;;;;;17.96;60.14;98381.53;2085312;28;20344;-51
2023/04/26 05:06:24;;;;;;;;;;;;;;;17.97;60.13;98383.19;2086935;28;19970;-50
2023/04/26 05:07:24;;;;;;;;;;;;;;;17.98;59.86;98386.69;2086787;28;20485;-51
2023/04/26 05:08:26;;;;;;;;;;;;;;;17.97;59.78;98383.19;2088168;28;19929;-49
2023/04/26 05:09:26;;;;;;;;;;;;;;;17.97;59.76;98383.19;2090934;28;19925;-49
2023/04/26 05:10:27;;;;;;;;;;;;;;;17.95;59.85;98379.88;2089037;28;20282;-50
2023/04/26 05:11:28;;;;;;;;;;;;;;;17.94;59.96;98378.25;2087869;28;20448;-52
2023/04/26 05:12:31;;;;;;;;;;;;;;;17.95;59.96;98379.06;2085703;28;19987;-50
2023/04/26 05:13:31;;;;;;;;;;;;;;;17.94;60.05;98388.97;2087269;28;19928;-51
2023/04/26 05:14:33;;;;;;;;;;;;;;;17.95;60.08;98390.63;2084960;28;19933;-50
2023/04/26 05:15:34;;;;;;;;;;;;;;;17.94;60.07;98391.66;2086677;28;19951;-54
2023/04/26 05:16:35;;;;;;;;;;;;;;;17.95;59.97;98387.09;2087149;28;19928;-51
2023/04/26 05:17:36;;;;;;;;;;;;;;;17.94;59.80;98391.66;2087857;28;20567;-53
2023/04/26 05:18:36;;;;;;;;;;;;;;;17.95;60.09;98389.78;2087388;28;20005;-51
2023/04/26 05:19:38;;;;;;;;;;;;;;;17.96;59.81;98402.16;2086921;28;19928;-52